sensor_id;sensor_type;location;lat;lon;timestamp;temperature;humidity
52725;DHT22;38621;52.830;6.914;2022-07-23T00:00:50;14.00;99.90
52725;DHT22;38621;52.830;6.914;2022-07-23T00:03:15;14.00;99.90
52725;DHT22;38621;52.830;6.914;2022-07-23T00:05:41;13.90;99.90
52725;DHT22;38621;52.830;6.914;2022-07-23T00:08:07;13.70;99.90
52725;DHT22;38621;52.830;6.914;2022-07-23T00:10:33;13.80;99.90
52725;DHT22;38621;52.830;6.914;2022-07-23T00:12:59;13.80;99.90
52725;DHT22;38621;52.830;6.914;2022-07-23T00:15:25;13.80;99.90
52725;DHT22;38621;52.830;6.914;2022-07-23T00:17:50;13.80;99.90
52725;DHT22;38621;52.830;6.914;2022-07-23T00:20:16;13.80;99.90
52725;DHT22;38621;52.830;6.914;2022-07-23T00:22:49;13.80;99.90
52725;DHT22;38621;52.830;6.914;2022-07-23T00:25:15;13.80;99.90
52725;DHT22;38621;52.830;6.914;2022-07-23T00:27:41;13.70;99.90
52725;DHT22;38621;52.830;6.914;2022-07-23T00:30:07;13.70;99.90
52725;DHT22;38621;52.830;6.914;2022-07-23T00:32:48;13.60;99.90
52725;DHT22;38621;52.830;6.914;2022-07-23T00:35:15;13.60;99.90
52725;DHT22;38621;52.830;6.914;2022-07-23T00:37:41;13.50;99.90
52725;DHT22;38621;52.830;6.914;2022-07-23T00:40:08;13.50;99.90
52725;DHT22;38621;52.830;6.914;2022-07-23T00:42:34;13.50;99.90
52725;DHT22;38621;52.830;6.914;2022-07-23T00:45:00;13.50;99.90
52725;DHT22;38621;52.830;6.914;2022-07-23T00:47:25;13.40;99.90
52725;DHT22;38621;52.830;6.914;2022-07-23T00:49:51;13.40;99.90
52725;DHT22;38621;52.830;6.914;2022-07-23T00:52:17;13.30;99.90
52725;DHT22;38621;52.830;6.914;2022-07-23T00:54:42;13.40;99.90
52725;DHT22;38621;52.830;6.914;2022-07-23T00:57:09;13.30;99.90
52725;DHT22;38621;52.830;6.914;2022-07-23T00:59:35;13.30;99.90
52725;DHT22;38621;52.830;6.914;2022-07-23T01:02:00;13.20;99.90
52725;DHT22;38621;52.830;6.914;2022-07-23T01:04:26;13.10;99.90
52725;DHT22;38621;52.830;6.914;2022-07-23T01:06:53;13.00;99.90
52725;DHT22;38621;52.830;6.914;2022-07-23T01:09:18;13.00;99.90
52725;DHT22;38621;52.830;6.914;2022-07-23T01:11:44;13.00;99.90
52725;DHT22;38621;52.830;6.914;2022-07-23T01:14:18;13.00;99.90
52725;DHT22;38621;52.830;6.914;2022-07-23T01:16:46;13.00;99.90
52725;DHT22;38621;52.830;6.914;2022-07-23T01:19:13;13.00;99.90
52725;DHT22;38621;52.830;6.914;2022-07-23T01:21:42;13.00;99.90
52725;DHT22;38621;52.830;6.914;2022-07-23T01:24:08;12.90;99.90
52725;DHT22;38621;52.830;6.914;2022-07-23T01:26:35;12.90;99.90
52725;DHT22;38621;52.830;6.914;2022-07-23T01:29:01;12.90;99.90
52725;DHT22;38621;52.830;6.914;2022-07-23T01:31:27;13.00;99.90
52725;DHT22;38621;52.830;6.914;2022-07-23T01:33:53;13.00;99.90
52725;DHT22;38621;52.830;6.914;2022-07-23T01:36:19;13.00;99.90
52725;DHT22;38621;52.830;6.914;2022-07-23T01:38:44;13.10;99.90
52725;DHT22;38621;52.830;6.914;2022-07-23T01:41:10;13.10;99.90
52725;DHT22;38621;52.830;6.914;2022-07-23T01:43:36;13.20;99.90
52725;DHT22;38621;52.830;6.914;2022-07-23T01:46:01;13.20;99.90
52725;DHT22;38621;52.830;6.914;2022-07-23T01:48:27;13.20;99.90
52725;DHT22;38621;52.830;6.914;2022-07-23T01:50:53;13.30;99.90
52725;DHT22;38621;52.830;6.914;2022-07-23T01:53:18;13.30;99.90
52725;DHT22;38621;52.830;6.914;2022-07-23T01:55:44;13.20;99.90
52725;DHT22;38621;52.830;6.914;2022-07-23T01:58:10;13.20;99.90
52725;DHT22;38621;52.830;6.914;2022-07-23T02:00:35;13.10;99.90
52725;DHT22;38621;52.830;6.914;2022-07-23T02:03:01;13.10;99.90
52725;DHT22;38621;52.830;6.914;2022-07-23T02:05:27;13.00;99.90
52725;DHT22;38621;52.830;6.914;2022-07-23T02:07:57;13.00;99.90
52725;DHT22;38621;52.830;6.914;2022-07-23T02:10:23;12.90;99.90
52725;DHT22;38621;52.830;6.914;2022-07-23T02:12:49;12.80;99.90
52725;DHT22;38621;52.830;6.914;2022-07-23T02:15:15;12.80;99.90
52725;DHT22;38621;52.830;6.914;2022-07-23T02:17:41;12.70;99.90
52725;DHT22;38621;52.830;6.914;2022-07-23T02:20:08;12.60;99.90
52725;DHT22;38621;52.830;6.914;2022-07-23T02:22:34;12.50;99.90
52725;DHT22;38621;52.830;6.914;2022-07-23T02:25:00;12.50;99.90
52725;DHT22;38621;52.830;6.914;2022-07-23T02:27:26;12.40;99.90
52725;DHT22;38621;52.830;6.914;2022-07-23T02:29:51;12.40;99.90
52725;DHT22;38621;52.830;6.914;2022-07-23T02:32:17;12.40;99.90
52725;DHT22;38621;52.830;6.914;2022-07-23T02:34:43;12.40;99.90
52725;DHT22;38621;52.830;6.914;2022-07-23T02:37:08;12.30;99.90
52725;DHT22;38621;52.830;6.914;2022-07-23T02:39:35;12.20;99.90
52725;DHT22;38621;52.830;6.914;2022-07-23T02:42:01;12.20;99.90
52725;DHT22;38621;52.830;6.914;2022-07-23T02:44:27;12.20;99.90
52725;DHT22;38621;52.830;6.914;2022-07-23T02:46:53;12.20;99.90
52725;DHT22;38621;52.830;6.914;2022-07-23T02:49:19;12.20;99.90
52725;DHT22;38621;52.830;6.914;2022-07-23T02:51:44;12.20;99.90
52725;DHT22;38621;52.830;6.914;2022-07-23T02:54:10;12.20;99.90
52725;DHT22;38621;52.830;6.914;2022-07-23T02:56:35;12.10;99.90
52725;DHT22;38621;52.830;6.914;2022-07-23T02:59:01;12.20;99.90
52725;DHT22;38621;52.830;6.914;2022-07-23T03:01:27;12.10;99.90
52725;DHT22;38621;52.830;6.914;2022-07-23T03:03:52;12.00;99.90
52725;DHT22;38621;52.830;6.914;2022-07-23T03:06:18;12.00;99.90
52725;DHT22;38621;52.830;6.914;2022-07-23T03:08:44;11.90;99.90
52725;DHT22;38621;52.830;6.914;2022-07-23T03:11:10;11.90;99.90
52725;DHT22;38621;52.830;6.914;2022-07-23T03:13:39;11.90;99.90
52725;DHT22;38621;52.830;6.914;2022-07-23T03:16:05;11.90;99.90
52725;DHT22;38621;52.830;6.914;2022-07-23T03:18:32;11.90;99.90
52725;DHT22;38621;52.830;6.914;2022-07-23T03:20:57;11.90;99.90
52725;DHT22;38621;52.830;6.914;2022-07-23T03:23:23;11.80;99.90
52725;DHT22;38621;52.830;6.914;2022-07-23T03:25:49;11.80;99.90
52725;DHT22;38621;52.830;6.914;2022-07-23T03:28:15;11.80;99.90
52725;DHT22;38621;52.830;6.914;2022-07-23T03:30:45;11.80;99.90
52725;DHT22;38621;52.830;6.914;2022-07-23T03:33:13;11.80;99.90
52725;DHT22;38621;52.830;6.914;2022-07-23T03:35:39;11.70;99.90
52725;DHT22;38621;52.830;6.914;2022-07-23T03:38:04;11.70;99.90
52725;DHT22;38621;52.830;6.914;2022-07-23T03:40:30;11.60;99.90
52725;DHT22;38621;52.830;6.914;2022-07-23T03:42:56;11.60;99.90
52725;DHT22;38621;52.830;6.914;2022-07-23T03:45:22;11.60;99.90
52725;DHT22;38621;52.830;6.914;2022-07-23T03:47:47;11.50;99.90
52725;DHT22;38621;52.830;6.914;2022-07-23T03:50:13;11.30;99.90
52725;DHT22;38621;52.830;6.914;2022-07-23T03:52:39;11.30;99.90
52725;DHT22;38621;52.830;6.914;2022-07-23T03:55:05;11.20;99.90
52725;DHT22;38621;52.830;6.914;2022-07-23T03:57:31;11.20;99.90
52725;DHT22;38621;52.830;6.914;2022-07-23T03:59:57;11.30;99.90
52725;DHT22;38621;52.830;6.914;2022-07-23T04:02:22;11.20;99.90
52725;DHT22;38621;52.830;6.914;2022-07-23T04:04:48;11.20;99.90
52725;DHT22;38621;52.830;6.914;2022-07-23T04:07:14;11.20;99.90
52725;DHT22;38621;52.830;6.914;2022-07-23T04:09:40;11.20;99.90
52725;DHT22;38621;52.830;6.914;2022-07-23T04:12:06;11.30;99.90
52725;DHT22;38621;52.830;6.914;2022-07-23T04:14:33;11.30;99.90
52725;DHT22;38621;52.830;6.914;2022-07-23T04:16:59;11.40;99.90
52725;DHT22;38621;52.830;6.914;2022-07-23T04:19:25;11.40;99.90
52725;DHT22;38621;52.830;6.914;2022-07-23T04:21:51;11.50;99.90
52725;DHT22;38621;52.830;6.914;2022-07-23T04:24:17;11.50;99.90
52725;DHT22;38621;52.830;6.914;2022-07-23T04:26:43;11.60;99.90
52725;DHT22;38621;52.830;6.914;2022-07-23T04:29:09;11.70;99.90
52725;DHT22;38621;52.830;6.914;2022-07-23T04:31:35;11.80;99.90
52725;DHT22;38621;52.830;6.914;2022-07-23T04:34:01;11.80;99.90
52725;DHT22;38621;52.830;6.914;2022-07-23T04:36:26;11.80;99.90
52725;DHT22;38621;52.830;6.914;2022-07-23T04:38:53;11.90;99.90
52725;DHT22;38621;52.830;6.914;2022-07-23T04:41:18;11.90;99.90
52725;DHT22;38621;52.830;6.914;2022-07-23T04:43:44;11.90;99.90
52725;DHT22;38621;52.830;6.914;2022-07-23T04:46:10;12.00;99.90
52725;DHT22;38621;52.830;6.914;2022-07-23T04:48:36;12.00;99.90
52725;DHT22;38621;52.830;6.914;2022-07-23T04:51:02;12.00;99.90
52725;DHT22;38621;52.830;6.914;2022-07-23T04:53:28;12.10;99.90
52725;DHT22;38621;52.830;6.914;2022-07-23T04:55:54;12.10;99.90
52725;DHT22;38621;52.830;6.914;2022-07-23T04:58:20;12.20;99.90
52725;DHT22;38621;52.830;6.914;2022-07-23T05:00:46;12.30;99.90
52725;DHT22;38621;52.830;6.914;2022-07-23T05:03:12;12.40;99.90
52725;DHT22;38621;52.830;6.914;2022-07-23T05:05:37;12.50;99.90
52725;DHT22;38621;52.830;6.914;2022-07-23T05:08:03;12.60;99.90
52725;DHT22;38621;52.830;6.914;2022-07-23T05:10:29;12.70;99.90
52725;DHT22;38621;52.830;6.914;2022-07-23T05:12:55;12.70;99.90
52725;DHT22;38621;52.830;6.914;2022-07-23T05:15:21;12.90;99.90
52725;DHT22;38621;52.830;6.914;2022-07-23T05:17:47;13.00;99.90
52725;DHT22;38621;52.830;6.914;2022-07-23T05:20:12;13.10;99.90
52725;DHT22;38621;52.830;6.914;2022-07-23T05:22:39;13.20;99.90
52725;DHT22;38621;52.830;6.914;2022-07-23T05:25:05;13.30;99.90
52725;DHT22;38621;52.830;6.914;2022-07-23T05:27:31;13.50;99.90
52725;DHT22;38621;52.830;6.914;2022-07-23T05:29:57;13.60;99.90
52725;DHT22;38621;52.830;6.914;2022-07-23T05:32:23;13.70;99.90
52725;DHT22;38621;52.830;6.914;2022-07-23T05:34:49;13.70;99.90
52725;DHT22;38621;52.830;6.914;2022-07-23T05:37:15;13.90;99.90
52725;DHT22;38621;52.830;6.914;2022-07-23T05:39:40;14.00;99.90
52725;DHT22;38621;52.830;6.914;2022-07-23T05:42:06;14.10;99.90
52725;DHT22;38621;52.830;6.914;2022-07-23T05:44:32;14.20;99.90
52725;DHT22;38621;52.830;6.914;2022-07-23T05:46:57;14.20;99.90
52725;DHT22;38621;52.830;6.914;2022-07-23T05:49:23;14.30;99.90
52725;DHT22;38621;52.830;6.914;2022-07-23T05:51:49;14.30;99.90
52725;DHT22;38621;52.830;6.914;2022-07-23T05:54:14;14.40;99.90
52725;DHT22;38621;52.830;6.914;2022-07-23T05:56:40;14.50;99.90
52725;DHT22;38621;52.830;6.914;2022-07-23T05:59:05;14.60;99.90
52725;DHT22;38621;52.830;6.914;2022-07-23T06:01:31;14.60;99.90
52725;DHT22;38621;52.830;6.914;2022-07-23T06:03:57;14.70;99.90
52725;DHT22;38621;52.830;6.914;2022-07-23T06:06:23;14.80;99.90
52725;DHT22;38621;52.830;6.914;2022-07-23T06:08:48;14.90;99.90
52725;DHT22;38621;52.830;6.914;2022-07-23T06:11:14;15.00;99.90
52725;DHT22;38621;52.830;6.914;2022-07-23T06:13:40;15.00;99.90
52725;DHT22;38621;52.830;6.914;2022-07-23T06:16:05;15.00;99.90
52725;DHT22;38621;52.830;6.914;2022-07-23T06:18:31;15.00;99.90
52725;DHT22;38621;52.830;6.914;2022-07-23T06:20:57;15.10;99.90
52725;DHT22;38621;52.830;6.914;2022-07-23T06:23:22;15.10;99.90
52725;DHT22;38621;52.830;6.914;2022-07-23T06:25:48;15.20;99.90
52725;DHT22;38621;52.830;6.914;2022-07-23T06:28:14;15.20;99.90
52725;DHT22;38621;52.830;6.914;2022-07-23T06:30:39;15.30;99.90
52725;DHT22;38621;52.830;6.914;2022-07-23T06:33:05;15.40;99.90
52725;DHT22;38621;52.830;6.914;2022-07-23T06:35:31;15.50;99.90
52725;DHT22;38621;52.830;6.914;2022-07-23T06:37:56;15.60;99.90
52725;DHT22;38621;52.830;6.914;2022-07-23T06:40:22;15.70;99.90
52725;DHT22;38621;52.830;6.914;2022-07-23T06:42:48;15.80;99.90
52725;DHT22;38621;52.830;6.914;2022-07-23T06:45:13;15.90;99.90
52725;DHT22;38621;52.830;6.914;2022-07-23T06:47:39;15.90;99.90
52725;DHT22;38621;52.830;6.914;2022-07-23T06:50:06;16.00;99.90
52725;DHT22;38621;52.830;6.914;2022-07-23T06:52:32;16.10;99.90
52725;DHT22;38621;52.830;6.914;2022-07-23T06:54:57;16.10;99.90
52725;DHT22;38621;52.830;6.914;2022-07-23T06:57:23;16.20;99.90
52725;DHT22;38621;52.830;6.914;2022-07-23T06:59:51;16.30;99.90
52725;DHT22;38621;52.830;6.914;2022-07-23T07:02:17;16.30;99.90
52725;DHT22;38621;52.830;6.914;2022-07-23T07:04:43;16.40;99.90
52725;DHT22;38621;52.830;6.914;2022-07-23T07:07:08;16.40;99.90
52725;DHT22;38621;52.830;6.914;2022-07-23T07:09:34;16.50;99.90
52725;DHT22;38621;52.830;6.914;2022-07-23T07:12:00;16.50;99.90
52725;DHT22;38621;52.830;6.914;2022-07-23T07:14:26;16.60;99.90
52725;DHT22;38621;52.830;6.914;2022-07-23T07:16:51;16.70;99.90
52725;DHT22;38621;52.830;6.914;2022-07-23T07:19:17;16.70;99.90
52725;DHT22;38621;52.830;6.914;2022-07-23T07:21:43;16.80;99.90
52725;DHT22;38621;52.830;6.914;2022-07-23T07:24:08;16.90;99.90
52725;DHT22;38621;52.830;6.914;2022-07-23T07:26:34;17.00;99.90
52725;DHT22;38621;52.830;6.914;2022-07-23T07:29:00;17.10;99.90
52725;DHT22;38621;52.830;6.914;2022-07-23T07:31:26;17.20;99.90
52725;DHT22;38621;52.830;6.914;2022-07-23T07:33:52;17.20;99.90
52725;DHT22;38621;52.830;6.914;2022-07-23T07:36:17;17.10;99.90
52725;DHT22;38621;52.830;6.914;2022-07-23T07:38:43;17.10;99.90
52725;DHT22;38621;52.830;6.914;2022-07-23T07:41:09;17.10;99.90
52725;DHT22;38621;52.830;6.914;2022-07-23T07:43:36;17.30;99.90
52725;DHT22;38621;52.830;6.914;2022-07-23T07:46:03;17.40;99.90
52725;DHT22;38621;52.830;6.914;2022-07-23T07:48:29;17.50;99.90
52725;DHT22;38621;52.830;6.914;2022-07-23T07:50:54;17.60;99.90
52725;DHT22;38621;52.830;6.914;2022-07-23T07:53:20;17.60;99.90
52725;DHT22;38621;52.830;6.914;2022-07-23T07:55:46;17.50;99.90
52725;DHT22;38621;52.830;6.914;2022-07-23T07:58:12;17.40;99.90
52725;DHT22;38621;52.830;6.914;2022-07-23T08:00:37;17.60;99.90
52725;DHT22;38621;52.830;6.914;2022-07-23T08:03:03;17.70;99.90
52725;DHT22;38621;52.830;6.914;2022-07-23T08:05:30;17.90;99.90
52725;DHT22;38621;52.830;6.914;2022-07-23T08:07:57;18.00;99.90
52725;DHT22;38621;52.830;6.914;2022-07-23T08:10:23;18.00;99.90
52725;DHT22;38621;52.830;6.914;2022-07-23T08:12:52;18.00;99.90
52725;DHT22;38621;52.830;6.914;2022-07-23T08:15:20;17.90;99.90
52725;DHT22;38621;52.830;6.914;2022-07-23T08:17:46;17.90;99.90
52725;DHT22;38621;52.830;6.914;2022-07-23T08:20:14;17.90;99.90
52725;DHT22;38621;52.830;6.914;2022-07-23T08:25:09;17.80;99.90
52725;DHT22;38621;52.830;6.914;2022-07-23T08:27:35;18.00;99.90
52725;DHT22;38621;52.830;6.914;2022-07-23T08:30:01;18.10;99.90
52725;DHT22;38621;52.830;6.914;2022-07-23T08:32:27;18.20;99.90
52725;DHT22;38621;52.830;6.914;2022-07-23T08:34:52;18.00;99.90
52725;DHT22;38621;52.830;6.914;2022-07-23T08:37:18;17.90;99.90
52725;DHT22;38621;52.830;6.914;2022-07-23T08:39:43;17.90;99.90
52725;DHT22;38621;52.830;6.914;2022-07-23T08:42:09;18.20;99.90
52725;DHT22;38621;52.830;6.914;2022-07-23T08:44:35;18.50;99.90
52725;DHT22;38621;52.830;6.914;2022-07-23T08:47:01;18.70;99.90
52725;DHT22;38621;52.830;6.914;2022-07-23T08:49:28;18.70;99.90
52725;DHT22;38621;52.830;6.914;2022-07-23T08:51:55;18.60;99.90
52725;DHT22;38621;52.830;6.914;2022-07-23T08:54:22;18.60;99.90
52725;DHT22;38621;52.830;6.914;2022-07-23T08:56:48;18.50;99.90
52725;DHT22;38621;52.830;6.914;2022-07-23T08:59:14;18.30;99.90
52725;DHT22;38621;52.830;6.914;2022-07-23T09:01:40;18.20;99.90
52725;DHT22;38621;52.830;6.914;2022-07-23T09:04:06;18.20;99.90
52725;DHT22;38621;52.830;6.914;2022-07-23T09:06:31;18.40;99.90
52725;DHT22;38621;52.830;6.914;2022-07-23T09:08:57;18.50;99.90
52725;DHT22;38621;52.830;6.914;2022-07-23T09:11:23;18.50;99.90
52725;DHT22;38621;52.830;6.914;2022-07-23T09:16:35;18.30;99.90
52725;DHT22;38621;52.830;6.914;2022-07-23T09:19:03;18.50;99.90
52725;DHT22;38621;52.830;6.914;2022-07-23T09:21:34;18.60;99.90
52725;DHT22;38621;52.830;6.914;2022-07-23T09:26:38;19.00;99.90
52725;DHT22;38621;52.830;6.914;2022-07-23T09:31:41;19.10;99.90
52725;DHT22;38621;52.830;6.914;2022-07-23T09:34:13;18.90;99.90
52725;DHT22;38621;52.830;6.914;2022-07-23T09:36:39;18.70;99.90
52725;DHT22;38621;52.830;6.914;2022-07-23T09:39:05;18.50;99.90
52725;DHT22;38621;52.830;6.914;2022-07-23T09:41:58;18.40;99.90
52725;DHT22;38621;52.830;6.914;2022-07-23T09:44:41;18.40;99.90
52725;DHT22;38621;52.830;6.914;2022-07-23T09:47:07;18.70;99.90
52725;DHT22;38621;52.830;6.914;2022-07-23T09:49:33;19.00;99.90
52725;DHT22;38621;52.830;6.914;2022-07-23T09:52:00;19.20;99.90
52725;DHT22;38621;52.830;6.914;2022-07-23T09:54:36;19.40;99.90
52725;DHT22;38621;52.830;6.914;2022-07-23T09:57:09;19.60;99.90
52725;DHT22;38621;52.830;6.914;2022-07-23T09:59:39;19.50;99.90
52725;DHT22;38621;52.830;6.914;2022-07-23T10:02:08;19.40;99.90
52725;DHT22;38621;52.830;6.914;2022-07-23T10:04:35;19.50;99.90
52725;DHT22;38621;52.830;6.914;2022-07-23T10:07:03;19.60;99.90
52725;DHT22;38621;52.830;6.914;2022-07-23T10:09:32;19.60;99.90
52725;DHT22;38621;52.830;6.914;2022-07-23T10:12:04;19.70;99.90
52725;DHT22;38621;52.830;6.914;2022-07-23T10:14:33;19.80;99.90
52725;DHT22;38621;52.830;6.914;2022-07-23T10:17:03;19.80;99.90
52725;DHT22;38621;52.830;6.914;2022-07-23T10:19:29;19.80;99.90
52725;DHT22;38621;52.830;6.914;2022-07-23T10:22:11;19.80;99.90
52725;DHT22;38621;52.830;6.914;2022-07-23T10:24:55;19.90;99.90
52725;DHT22;38621;52.830;6.914;2022-07-23T10:27:47;19.90;99.90
52725;DHT22;38621;52.830;6.914;2022-07-23T10:30:36;19.80;99.90
52725;DHT22;38621;52.830;6.914;2022-07-23T10:36:23;19.80;99.90
52725;DHT22;38621;52.830;6.914;2022-07-23T10:38:54;20.00;99.90
52725;DHT22;38621;52.830;6.914;2022-07-23T10:41:36;20.10;99.90
52725;DHT22;38621;52.830;6.914;2022-07-23T10:44:10;20.20;99.90
52725;DHT22;38621;52.830;6.914;2022-07-23T10:46:53;20.30;99.90
52725;DHT22;38621;52.830;6.914;2022-07-23T10:49:26;20.40;99.90
52725;DHT22;38621;52.830;6.914;2022-07-23T10:54:40;20.40;99.90
52725;DHT22;38621;52.830;6.914;2022-07-23T10:57:08;20.50;99.90
52725;DHT22;38621;52.830;6.914;2022-07-23T11:02:26;20.50;99.90
52725;DHT22;38621;52.830;6.914;2022-07-23T11:04:53;20.60;99.90
52725;DHT22;38621;52.830;6.914;2022-07-23T11:07:19;20.70;99.90
52725;DHT22;38621;52.830;6.914;2022-07-23T11:09:45;20.70;99.90
52725;DHT22;38621;52.830;6.914;2022-07-23T11:14:57;20.70;99.90
52725;DHT22;38621;52.830;6.914;2022-07-23T11:17:24;20.80;99.90
52725;DHT22;38621;52.830;6.914;2022-07-23T11:27:47;20.70;99.90
52725;DHT22;38621;52.830;6.914;2022-07-23T11:35:42;20.80;99.90
52725;DHT22;38621;52.830;6.914;2022-07-23T11:38:22;20.80;99.90
52725;DHT22;38621;52.830;6.914;2022-07-23T11:40:53;20.80;99.90
52725;DHT22;38621;52.830;6.914;2022-07-23T11:43:20;20.70;99.90
52725;DHT22;38621;52.830;6.914;2022-07-23T11:45:48;20.60;99.90
52725;DHT22;38621;52.830;6.914;2022-07-23T11:48:19;20.60;99.90
52725;DHT22;38621;52.830;6.914;2022-07-23T11:50:45;20.50;99.90
52725;DHT22;38621;52.830;6.914;2022-07-23T11:53:11;20.50;99.90
52725;DHT22;38621;52.830;6.914;2022-07-23T11:55:37;20.60;99.90
52725;DHT22;38621;52.830;6.914;2022-07-23T11:58:03;20.70;99.90
52725;DHT22;38621;52.830;6.914;2022-07-23T12:00:30;20.70;99.90
52725;DHT22;38621;52.830;6.914;2022-07-23T12:02:58;20.80;99.90
52725;DHT22;38621;52.830;6.914;2022-07-23T12:05:28;20.90;99.90
52725;DHT22;38621;52.830;6.914;2022-07-23T12:07:55;20.90;99.90
52725;DHT22;38621;52.830;6.914;2022-07-23T12:10:30;20.80;99.90
52725;DHT22;38621;52.830;6.914;2022-07-23T12:13:13;20.80;99.90
52725;DHT22;38621;52.830;6.914;2022-07-23T12:15:44;20.70;99.90
52725;DHT22;38621;52.830;6.914;2022-07-23T12:18:13;20.60;99.90
52725;DHT22;38621;52.830;6.914;2022-07-23T12:20:43;20.70;99.90
52725;DHT22;38621;52.830;6.914;2022-07-23T12:23:11;20.70;99.90
52725;DHT22;38621;52.830;6.914;2022-07-23T12:25:39;20.70;99.90
52725;DHT22;38621;52.830;6.914;2022-07-23T12:28:06;20.80;99.90
52725;DHT22;38621;52.830;6.914;2022-07-23T12:30:39;20.70;99.90
52725;DHT22;38621;52.830;6.914;2022-07-23T12:33:08;20.80;99.90
52725;DHT22;38621;52.830;6.914;2022-07-23T12:35:45;20.70;99.90
52725;DHT22;38621;52.830;6.914;2022-07-23T12:38:16;20.70;99.90
52725;DHT22;38621;52.830;6.914;2022-07-23T12:45:56;21.10;99.90
52725;DHT22;38621;52.830;6.914;2022-07-23T12:48:30;21.20;99.90
52725;DHT22;38621;52.830;6.914;2022-07-23T12:51:00;21.30;99.90
52725;DHT22;38621;52.830;6.914;2022-07-23T12:53:31;21.20;99.90
52725;DHT22;38621;52.830;6.914;2022-07-23T12:56:17;21.30;99.90
52725;DHT22;38621;52.830;6.914;2022-07-23T13:04:09;21.10;99.90
52725;DHT22;38621;52.830;6.914;2022-07-23T13:06:41;21.10;99.90
52725;DHT22;38621;52.830;6.914;2022-07-23T13:09:08;21.10;99.90
52725;DHT22;38621;52.830;6.914;2022-07-23T13:11:35;21.10;99.90
52725;DHT22;38621;52.830;6.914;2022-07-23T13:14:01;20.90;99.90
52725;DHT22;38621;52.830;6.914;2022-07-23T13:16:27;20.90;99.90
52725;DHT22;38621;52.830;6.914;2022-07-23T13:18:53;20.80;99.90
52725;DHT22;38621;52.830;6.914;2022-07-23T13:21:19;20.80;99.90
52725;DHT22;38621;52.830;6.914;2022-07-23T13:23:45;21.00;99.90
52725;DHT22;38621;52.830;6.914;2022-07-23T13:26:10;21.20;99.90
52725;DHT22;38621;52.830;6.914;2022-07-23T13:28:36;21.40;99.90
52725;DHT22;38621;52.830;6.914;2022-07-23T13:31:02;21.50;99.90
52725;DHT22;38621;52.830;6.914;2022-07-23T13:33:28;21.60;99.90
52725;DHT22;38621;52.830;6.914;2022-07-23T13:35:54;21.50;99.90
52725;DHT22;38621;52.830;6.914;2022-07-23T13:38:20;21.50;99.90
52725;DHT22;38621;52.830;6.914;2022-07-23T13:40:47;21.60;99.90
52725;DHT22;38621;52.830;6.914;2022-07-23T13:43:15;21.80;99.90
52725;DHT22;38621;52.830;6.914;2022-07-23T13:45:41;21.80;99.90
52725;DHT22;38621;52.830;6.914;2022-07-23T13:48:08;21.70;99.90
52725;DHT22;38621;52.830;6.914;2022-07-23T13:50:34;21.60;99.90
52725;DHT22;38621;52.830;6.914;2022-07-23T13:53:05;21.40;99.90
52725;DHT22;38621;52.830;6.914;2022-07-23T13:55:32;21.40;99.90
52725;DHT22;38621;52.830;6.914;2022-07-23T13:57:59;21.30;99.90
52725;DHT22;38621;52.830;6.914;2022-07-23T14:00:26;21.40;99.90
52725;DHT22;38621;52.830;6.914;2022-07-23T14:02:52;21.60;99.90
52725;DHT22;38621;52.830;6.914;2022-07-23T14:05:18;21.60;99.90
52725;DHT22;38621;52.830;6.914;2022-07-23T14:07:44;21.70;99.90
52725;DHT22;38621;52.830;6.914;2022-07-23T14:10:12;21.70;99.90
52725;DHT22;38621;52.830;6.914;2022-07-23T14:12:38;21.60;99.90
52725;DHT22;38621;52.830;6.914;2022-07-23T14:15:06;21.70;99.90
52725;DHT22;38621;52.830;6.914;2022-07-23T14:17:35;21.80;99.90
52725;DHT22;38621;52.830;6.914;2022-07-23T14:20:01;22.00;99.90
52725;DHT22;38621;52.830;6.914;2022-07-23T14:22:27;22.20;99.90
52725;DHT22;38621;52.830;6.914;2022-07-23T14:24:53;22.30;99.90
52725;DHT22;38621;52.830;6.914;2022-07-23T14:27:19;22.30;99.90
52725;DHT22;38621;52.830;6.914;2022-07-23T14:29:44;22.30;99.90
52725;DHT22;38621;52.830;6.914;2022-07-23T14:32:10;22.30;99.90
52725;DHT22;38621;52.830;6.914;2022-07-23T14:34:36;22.30;99.90
52725;DHT22;38621;52.830;6.914;2022-07-23T14:37:01;22.30;99.90
52725;DHT22;38621;52.830;6.914;2022-07-23T14:39:27;22.40;99.90
52725;DHT22;38621;52.830;6.914;2022-07-23T14:41:54;22.50;99.90
52725;DHT22;38621;52.830;6.914;2022-07-23T14:44:19;22.60;99.90
52725;DHT22;38621;52.830;6.914;2022-07-23T14:46:45;22.50;99.90
52725;DHT22;38621;52.830;6.914;2022-07-23T14:49:11;22.30;99.90
52725;DHT22;38621;52.830;6.914;2022-07-23T14:51:37;22.20;99.90
52725;DHT22;38621;52.830;6.914;2022-07-23T14:54:03;22.10;99.90
52725;DHT22;38621;52.830;6.914;2022-07-23T14:56:29;22.00;99.90
52725;DHT22;38621;52.830;6.914;2022-07-23T14:58:55;22.10;99.90
52725;DHT22;38621;52.830;6.914;2022-07-23T15:01:22;22.20;99.90
52725;DHT22;38621;52.830;6.914;2022-07-23T15:03:49;22.30;99.90
52725;DHT22;38621;52.830;6.914;2022-07-23T15:06:16;22.40;99.90
52725;DHT22;38621;52.830;6.914;2022-07-23T15:08:42;22.40;99.90
52725;DHT22;38621;52.830;6.914;2022-07-23T15:11:08;22.40;99.90
52725;DHT22;38621;52.830;6.914;2022-07-23T15:13:37;22.40;99.90
52725;DHT22;38621;52.830;6.914;2022-07-23T15:16:04;22.30;99.90
52725;DHT22;38621;52.830;6.914;2022-07-23T15:18:30;22.20;99.90
52725;DHT22;38621;52.830;6.914;2022-07-23T15:20:56;22.10;99.90
52725;DHT22;38621;52.830;6.914;2022-07-23T15:23:22;22.00;99.90
52725;DHT22;38621;52.830;6.914;2022-07-23T15:25:47;22.00;99.90
52725;DHT22;38621;52.830;6.914;2022-07-23T15:28:13;22.10;99.90
52725;DHT22;38621;52.830;6.914;2022-07-23T15:30:39;22.10;99.90
52725;DHT22;38621;52.830;6.914;2022-07-23T15:33:05;22.20;99.90
52725;DHT22;38621;52.830;6.914;2022-07-23T15:35:31;22.20;99.90
52725;DHT22;38621;52.830;6.914;2022-07-23T15:37:57;22.20;99.90
52725;DHT22;38621;52.830;6.914;2022-07-23T15:40:23;22.30;99.90
52725;DHT22;38621;52.830;6.914;2022-07-23T15:42:49;22.30;99.90
52725;DHT22;38621;52.830;6.914;2022-07-23T15:45:15;22.50;99.90
52725;DHT22;38621;52.830;6.914;2022-07-23T15:47:41;22.40;99.90
52725;DHT22;38621;52.830;6.914;2022-07-23T15:50:08;22.30;99.90
52725;DHT22;38621;52.830;6.914;2022-07-23T15:52:35;22.20;99.90
52725;DHT22;38621;52.830;6.914;2022-07-23T15:55:01;22.30;99.90
52725;DHT22;38621;52.830;6.914;2022-07-23T15:57:27;22.50;99.90
52725;DHT22;38621;52.830;6.914;2022-07-23T15:59:53;22.70;99.90
52725;DHT22;38621;52.830;6.914;2022-07-23T16:02:22;22.90;99.90
52725;DHT22;38621;52.830;6.914;2022-07-23T16:04:48;23.30;99.90
52725;DHT22;38621;52.830;6.914;2022-07-23T16:07:17;23.90;99.90
52725;DHT22;38621;52.830;6.914;2022-07-23T16:09:43;24.20;99.90
52725;DHT22;38621;52.830;6.914;2022-07-23T16:12:09;24.70;99.90
52725;DHT22;38621;52.830;6.914;2022-07-23T16:14:35;25.20;99.90